sensor_id;sensor_type;location;lat;lon;timestamp;P1;durP1;ratioP1;P2;durP2;ratioP2
62990;SDS011;49084;48.204;16.202;2023-04-24T00:01:26;5.68;;;4.03;;
62990;SDS011;49084;48.204;16.202;2023-04-24T00:03:53;8.23;;;4.60;;
62990;SDS011;49084;48.204;16.202;2023-04-24T00:06:19;10.25;;;4.50;;
62990;SDS011;49084;48.204;16.202;2023-04-24T00:08:45;16.65;;;5.10;;
62990;SDS011;49084;48.204;16.202;2023-04-24T00:11:11;12.25;;;4.97;;
62990;SDS011;49084;48.204;16.202;2023-04-24T00:13:37;8.52;;;4.85;;
62990;SDS011;49084;48.204;16.202;2023-04-24T00:16:02;11.80;;;4.43;;
62990;SDS011;49084;48.204;16.202;2023-04-24T00:18:28;7.07;;;4.30;;
62990;SDS011;49084;48.204;16.202;2023-04-24T00:20:54;5.53;;;4.28;;
62990;SDS011;49084;48.204;16.202;2023-04-24T00:23:20;5.18;;;3.88;;
62990;SDS011;49084;48.204;16.202;2023-04-24T00:25:45;10.50;;;5.13;;
62990;SDS011;49084;48.204;16.202;2023-04-24T00:28:11;6.32;;;4.70;;
62990;SDS011;49084;48.204;16.202;2023-04-24T00:30:36;9.43;;;4.45;;
62990;SDS011;49084;48.204;16.202;2023-04-24T00:33:02;8.35;;;5.03;;
62990;SDS011;49084;48.204;16.202;2023-04-24T00:35:28;7.18;;;4.28;;
62990;SDS011;49084;48.204;16.202;2023-04-24T00:37:53;6.32;;;5.07;;
62990;SDS011;49084;48.204;16.202;2023-04-24T00:40:19;5.47;;;4.45;;
62990;SDS011;49084;48.204;16.202;2023-04-24T00:42:45;5.22;;;4.72;;
62990;SDS011;49084;48.204;16.202;2023-04-24T00:45:11;5.93;;;4.40;;
62990;SDS011;49084;48.204;16.202;2023-04-24T00:47:37;5.93;;;4.90;;
62990;SDS011;49084;48.204;16.202;2023-04-24T00:50:04;8.75;;;5.43;;
62990;SDS011;49084;48.204;16.202;2023-04-24T00:52:31;9.00;;;5.20;;
62990;SDS011;49084;48.204;16.202;2023-04-24T00:54:57;8.07;;;4.90;;
62990;SDS011;49084;48.204;16.202;2023-04-24T00:57:24;12.63;;;5.32;;
62990;SDS011;49084;48.204;16.202;2023-04-24T00:59:50;7.63;;;5.18;;
62990;SDS011;49084;48.204;16.202;2023-04-24T01:02:18;6.53;;;5.13;;
62990;SDS011;49084;48.204;16.202;2023-04-24T01:04:44;5.97;;;5.38;;
62990;SDS011;49084;48.204;16.202;2023-04-24T01:07:10;6.53;;;5.22;;
62990;SDS011;49084;48.204;16.202;2023-04-24T01:09:42;9.90;;;5.22;;
62990;SDS011;49084;48.204;16.202;2023-04-24T01:12:12;8.75;;;4.72;;
62990;SDS011;49084;48.204;16.202;2023-04-24T01:14:38;11.65;;;5.35;;
62990;SDS011;49084;48.204;16.202;2023-04-24T01:17:03;6.53;;;4.97;;
62990;SDS011;49084;48.204;16.202;2023-04-24T01:19:29;11.32;;;5.82;;
62990;SDS011;49084;48.204;16.202;2023-04-24T01:21:56;13.23;;;5.72;;
62990;SDS011;49084;48.204;16.202;2023-04-24T01:24:23;7.97;;;5.10;;
62990;SDS011;49084;48.204;16.202;2023-04-24T01:26:49;12.02;;;5.93;;
62990;SDS011;49084;48.204;16.202;2023-04-24T01:29:15;9.23;;;5.43;;
62990;SDS011;49084;48.204;16.202;2023-04-24T01:31:41;8.05;;;5.22;;
62990;SDS011;49084;48.204;16.202;2023-04-24T01:34:07;7.80;;;5.03;;
62990;SDS011;49084;48.204;16.202;2023-04-24T01:36:33;9.10;;;6.05;;
62990;SDS011;49084;48.204;16.202;2023-04-24T01:39:00;6.88;;;4.82;;
62990;SDS011;49084;48.204;16.202;2023-04-24T01:41:25;7.05;;;4.88;;
62990;SDS011;49084;48.204;16.202;2023-04-24T01:43:51;5.82;;;5.28;;
62990;SDS011;49084;48.204;16.202;2023-04-24T01:46:17;6.95;;;4.85;;
62990;SDS011;49084;48.204;16.202;2023-04-24T01:48:44;6.68;;;4.57;;
62990;SDS011;49084;48.204;16.202;2023-04-24T01:51:10;8.85;;;5.05;;
62990;SDS011;49084;48.204;16.202;2023-04-24T01:53:36;7.35;;;4.80;;
62990;SDS011;49084;48.204;16.202;2023-04-24T01:56:02;7.13;;;5.05;;
62990;SDS011;49084;48.204;16.202;2023-04-24T01:58:28;7.20;;;4.68;;
62990;SDS011;49084;48.204;16.202;2023-04-24T02:00:55;8.90;;;4.90;;
62990;SDS011;49084;48.204;16.202;2023-04-24T02:03:23;10.18;;;5.55;;
62990;SDS011;49084;48.204;16.202;2023-04-24T02:05:50;6.53;;;5.20;;
62990;SDS011;49084;48.204;16.202;2023-04-24T02:08:15;8.82;;;4.50;;
62990;SDS011;49084;48.204;16.202;2023-04-24T02:10:41;5.85;;;4.72;;
62990;SDS011;49084;48.204;16.202;2023-04-24T02:13:06;8.45;;;5.15;;
62990;SDS011;49084;48.204;16.202;2023-04-24T02:15:32;6.60;;;4.90;;
62990;SDS011;49084;48.204;16.202;2023-04-24T02:17:58;5.82;;;4.47;;
62990;SDS011;49084;48.204;16.202;2023-04-24T02:20:23;8.90;;;4.60;;
62990;SDS011;49084;48.204;16.202;2023-04-24T02:22:49;8.52;;;4.30;;
62990;SDS011;49084;48.204;16.202;2023-04-24T02:25:15;8.70;;;4.70;;
62990;SDS011;49084;48.204;16.202;2023-04-24T02:27:40;5.78;;;4.30;;
62990;SDS011;49084;48.204;16.202;2023-04-24T02:30:06;7.07;;;4.10;;
62990;SDS011;49084;48.204;16.202;2023-04-24T02:32:33;6.13;;;3.67;;
62990;SDS011;49084;48.204;16.202;2023-04-24T02:34:59;7.05;;;4.10;;
62990;SDS011;49084;48.204;16.202;2023-04-24T02:37:24;8.73;;;3.63;;
62990;SDS011;49084;48.204;16.202;2023-04-24T02:39:51;8.57;;;4.00;;
62990;SDS011;49084;48.204;16.202;2023-04-24T02:42:16;5.63;;;4.07;;
62990;SDS011;49084;48.204;16.202;2023-04-24T02:44:42;8.70;;;3.47;;
62990;SDS011;49084;48.204;16.202;2023-04-24T02:47:07;5.10;;;3.00;;
62990;SDS011;49084;48.204;16.202;2023-04-24T02:49:33;7.80;;;3.22;;
62990;SDS011;49084;48.204;16.202;2023-04-24T02:51:59;5.53;;;3.60;;
62990;SDS011;49084;48.204;16.202;2023-04-24T02:54:25;4.32;;;3.30;;
62990;SDS011;49084;48.204;16.202;2023-04-24T02:56:50;5.45;;;3.58;;
62990;SDS011;49084;48.204;16.202;2023-04-24T02:59:16;3.78;;;3.35;;
62990;SDS011;49084;48.204;16.202;2023-04-24T03:01:41;6.50;;;3.70;;
62990;SDS011;49084;48.204;16.202;2023-04-24T03:04:07;3.83;;;3.22;;
62990;SDS011;49084;48.204;16.202;2023-04-24T03:06:33;6.18;;;3.70;;
62990;SDS011;49084;48.204;16.202;2023-04-24T03:09:00;6.32;;;3.40;;
62990;SDS011;49084;48.204;16.202;2023-04-24T03:11:26;4.72;;;3.50;;
62990;SDS011;49084;48.204;16.202;2023-04-24T03:13:51;7.10;;;3.15;;
62990;SDS011;49084;48.204;16.202;2023-04-24T03:16:17;9.18;;;4.63;;
62990;SDS011;49084;48.204;16.202;2023-04-24T03:18:43;3.45;;;3.15;;
62990;SDS011;49084;48.204;16.202;2023-04-24T03:21:08;3.75;;;2.95;;
62990;SDS011;49084;48.204;16.202;2023-04-24T03:23:34;4.13;;;3.20;;
62990;SDS011;49084;48.204;16.202;2023-04-24T03:25:59;3.42;;;3.13;;
62990;SDS011;49084;48.204;16.202;2023-04-24T03:28:25;6.82;;;3.45;;
62990;SDS011;49084;48.204;16.202;2023-04-24T03:30:51;3.90;;;2.90;;
62990;SDS011;49084;48.204;16.202;2023-04-24T03:33:17;5.85;;;2.92;;
62990;SDS011;49084;48.204;16.202;2023-04-24T03:35:42;3.97;;;2.88;;
62990;SDS011;49084;48.204;16.202;2023-04-24T03:38:08;3.60;;;3.17;;
62990;SDS011;49084;48.204;16.202;2023-04-24T03:40:34;3.75;;;3.15;;
62990;SDS011;49084;48.204;16.202;2023-04-24T03:42:59;4.40;;;3.30;;
62990;SDS011;49084;48.204;16.202;2023-04-24T03:45:25;5.15;;;3.50;;
62990;SDS011;49084;48.204;16.202;2023-04-24T03:47:50;5.53;;;3.03;;
62990;SDS011;49084;48.204;16.202;2023-04-24T03:50:16;4.38;;;2.85;;
62990;SDS011;49084;48.204;16.202;2023-04-24T03:52:42;4.63;;;3.55;;
62990;SDS011;49084;48.204;16.202;2023-04-24T03:55:07;4.22;;;3.00;;
62990;SDS011;49084;48.204;16.202;2023-04-24T03:57:33;3.20;;;2.90;;
62990;SDS011;49084;48.204;16.202;2023-04-24T03:59:59;3.08;;;2.60;;
62990;SDS011;49084;48.204;16.202;2023-04-24T04:02:24;2.83;;;2.53;;
62990;SDS011;49084;48.204;16.202;2023-04-24T04:04:50;12.10;;;3.90;;
62990;SDS011;49084;48.204;16.202;2023-04-24T04:07:16;3.35;;;3.05;;
62990;SDS011;49084;48.204;16.202;2023-04-24T04:09:41;5.18;;;2.80;;
62990;SDS011;49084;48.204;16.202;2023-04-24T04:12:07;2.65;;;2.35;;
62990;SDS011;49084;48.204;16.202;2023-04-24T04:14:33;2.85;;;2.65;;
62990;SDS011;49084;48.204;16.202;2023-04-24T04:16:58;3.10;;;2.60;;
62990;SDS011;49084;48.204;16.202;2023-04-24T04:19:24;2.80;;;2.60;;
62990;SDS011;49084;48.204;16.202;2023-04-24T04:21:50;5.28;;;3.08;;
62990;SDS011;49084;48.204;16.202;2023-04-24T04:24:18;3.40;;;2.30;;
62990;SDS011;49084;48.204;16.202;2023-04-24T04:26:45;2.83;;;2.50;;
62990;SDS011;49084;48.204;16.202;2023-04-24T04:29:12;2.65;;;2.33;;
62990;SDS011;49084;48.204;16.202;2023-04-24T04:31:38;2.70;;;2.30;;
62990;SDS011;49084;48.204;16.202;2023-04-24T04:34:04;3.92;;;2.40;;
62990;SDS011;49084;48.204;16.202;2023-04-24T04:36:30;2.58;;;2.17;;
62990;SDS011;49084;48.204;16.202;2023-04-24T04:38:56;4.88;;;2.40;;
62990;SDS011;49084;48.204;16.202;2023-04-24T04:41:24;5.20;;;2.30;;
62990;SDS011;49084;48.204;16.202;2023-04-24T04:43:50;5.47;;;2.25;;
62990;SDS011;49084;48.204;16.202;2023-04-24T04:46:15;3.35;;;2.25;;
62990;SDS011;49084;48.204;16.202;2023-04-24T04:48:41;3.03;;;2.30;;
62990;SDS011;49084;48.204;16.202;2023-04-24T04:51:07;7.30;;;2.90;;
62990;SDS011;49084;48.204;16.202;2023-04-24T04:53:32;6.18;;;2.40;;
62990;SDS011;49084;48.204;16.202;2023-04-24T04:55:58;3.50;;;2.72;;
62990;SDS011;49084;48.204;16.202;2023-04-24T04:58:24;3.10;;;2.30;;
62990;SDS011;49084;48.204;16.202;2023-04-24T05:00:50;3.42;;;2.58;;
62990;SDS011;49084;48.204;16.202;2023-04-24T05:03:17;3.55;;;2.22;;
62990;SDS011;49084;48.204;16.202;2023-04-24T05:05:42;2.85;;;2.58;;
62990;SDS011;49084;48.204;16.202;2023-04-24T05:08:08;4.22;;;2.70;;
62990;SDS011;49084;48.204;16.202;2023-04-24T05:10:34;4.60;;;2.97;;
62990;SDS011;49084;48.204;16.202;2023-04-24T05:13:01;3.35;;;2.78;;
62990;SDS011;49084;48.204;16.202;2023-04-24T05:15:28;4.97;;;2.85;;
62990;SDS011;49084;48.204;16.202;2023-04-24T05:17:54;6.20;;;2.40;;
62990;SDS011;49084;48.204;16.202;2023-04-24T05:20:19;6.15;;;2.67;;
62990;SDS011;49084;48.204;16.202;2023-04-24T05:22:45;4.00;;;2.50;;
62990;SDS011;49084;48.204;16.202;2023-04-24T05:25:11;3.50;;;2.65;;
62990;SDS011;49084;48.204;16.202;2023-04-24T05:27:37;7.38;;;2.95;;
62990;SDS011;49084;48.204;16.202;2023-04-24T05:30:03;4.10;;;2.60;;
62990;SDS011;49084;48.204;16.202;2023-04-24T05:32:29;3.00;;;2.50;;
62990;SDS011;49084;48.204;16.202;2023-04-24T05:34:55;4.22;;;2.78;;
62990;SDS011;49084;48.204;16.202;2023-04-24T05:37:21;2.78;;;2.58;;
62990;SDS011;49084;48.204;16.202;2023-04-24T05:39:46;7.63;;;2.22;;
62990;SDS011;49084;48.204;16.202;2023-04-24T05:42:12;2.30;;;2.13;;
62990;SDS011;49084;48.204;16.202;2023-04-24T05:44:38;3.60;;;2.53;;
62990;SDS011;49084;48.204;16.202;2023-04-24T05:47:03;2.50;;;2.30;;
62990;SDS011;49084;48.204;16.202;2023-04-24T05:49:29;2.08;;;1.85;;
62990;SDS011;49084;48.204;16.202;2023-04-24T05:51:54;2.08;;;1.92;;
62990;SDS011;49084;48.204;16.202;2023-04-24T05:54:21;2.15;;;1.85;;
62990;SDS011;49084;48.204;16.202;2023-04-24T05:56:46;4.70;;;2.03;;
62990;SDS011;49084;48.204;16.202;2023-04-24T05:59:12;2.50;;;2.17;;
62990;SDS011;49084;48.204;16.202;2023-04-24T06:01:37;2.95;;;1.98;;
62990;SDS011;49084;48.204;16.202;2023-04-24T06:04:03;3.60;;;2.40;;
62990;SDS011;49084;48.204;16.202;2023-04-24T06:06:29;2.35;;;2.15;;
62990;SDS011;49084;48.204;16.202;2023-04-24T06:08:55;4.28;;;2.13;;
62990;SDS011;49084;48.204;16.202;2023-04-24T06:11:21;2.00;;;1.80;;
62990;SDS011;49084;48.204;16.202;2023-04-24T06:13:47;3.67;;;2.25;;
62990;SDS011;49084;48.204;16.202;2023-04-24T06:16:13;3.33;;;2.15;;
62990;SDS011;49084;48.204;16.202;2023-04-24T06:18:39;4.30;;;2.10;;
62990;SDS011;49084;48.204;16.202;2023-04-24T06:21:05;2.42;;;1.95;;
62990;SDS011;49084;48.204;16.202;2023-04-24T06:23:31;3.17;;;1.75;;
62990;SDS011;49084;48.204;16.202;2023-04-24T06:25:58;2.38;;;2.08;;
62990;SDS011;49084;48.204;16.202;2023-04-24T06:28:24;1.52;;;1.42;;
62990;SDS011;49084;48.204;16.202;2023-04-24T06:30:50;3.00;;;1.50;;
62990;SDS011;49084;48.204;16.202;2023-04-24T06:33:16;2.85;;;1.50;;
62990;SDS011;49084;48.204;16.202;2023-04-24T06:35:42;2.45;;;1.30;;
62990;SDS011;49084;48.204;16.202;2023-04-24T06:38:07;1.40;;;1.30;;
62990;SDS011;49084;48.204;16.202;2023-04-24T06:40:33;2.67;;;1.08;;
62990;SDS011;49084;48.204;16.202;2023-04-24T06:42:59;1.90;;;1.00;;
62990;SDS011;49084;48.204;16.202;2023-04-24T06:45:27;3.92;;;1.10;;
62990;SDS011;49084;48.204;16.202;2023-04-24T06:47:53;1.20;;;1.02;;
62990;SDS011;49084;48.204;16.202;2023-04-24T06:50:19;1.35;;;0.75;;
62990;SDS011;49084;48.204;16.202;2023-04-24T06:52:45;4.25;;;1.10;;
62990;SDS011;49084;48.204;16.202;2023-04-24T06:55:11;1.00;;;0.90;;
62990;SDS011;49084;48.204;16.202;2023-04-24T06:57:36;1.88;;;1.10;;
62990;SDS011;49084;48.204;16.202;2023-04-24T07:00:03;1.25;;;1.15;;
62990;SDS011;49084;48.204;16.202;2023-04-24T07:02:31;2.17;;;1.10;;
62990;SDS011;49084;48.204;16.202;2023-04-24T07:04:57;1.20;;;1.10;;
62990;SDS011;49084;48.204;16.202;2023-04-24T07:07:22;2.10;;;1.10;;
62990;SDS011;49084;48.204;16.202;2023-04-24T07:09:48;2.05;;;1.02;;
62990;SDS011;49084;48.204;16.202;2023-04-24T07:12:15;1.67;;;1.27;;
62990;SDS011;49084;48.204;16.202;2023-04-24T07:14:42;3.28;;;1.00;;
62990;SDS011;49084;48.204;16.202;2023-04-24T07:17:07;1.05;;;1.05;;
62990;SDS011;49084;48.204;16.202;2023-04-24T07:19:33;1.35;;;1.10;;
62990;SDS011;49084;48.204;16.202;2023-04-24T07:22:02;1.15;;;0.90;;
62990;SDS011;49084;48.204;16.202;2023-04-24T07:24:28;1.25;;;0.90;;
62990;SDS011;49084;48.204;16.202;2023-04-24T07:26:54;2.30;;;1.10;;
62990;SDS011;49084;48.204;16.202;2023-04-24T07:29:20;0.75;;;0.75;;
62990;SDS011;49084;48.204;16.202;2023-04-24T07:31:46;1.00;;;0.90;;
62990;SDS011;49084;48.204;16.202;2023-04-24T07:34:12;2.00;;;1.00;;
62990;SDS011;49084;48.204;16.202;2023-04-24T07:36:37;0.70;;;0.60;;
62990;SDS011;49084;48.204;16.202;2023-04-24T07:39:03;1.55;;;1.00;;
62990;SDS011;49084;48.204;16.202;2023-04-24T07:41:29;1.63;;;1.00;;
62990;SDS011;49084;48.204;16.202;2023-04-24T07:43:55;0.98;;;0.70;;
62990;SDS011;49084;48.204;16.202;2023-04-24T07:46:21;1.27;;;1.20;;
62990;SDS011;49084;48.204;16.202;2023-04-24T07:48:48;1.85;;;1.50;;
62990;SDS011;49084;48.204;16.202;2023-04-24T07:51:14;6.03;;;1.40;;
62990;SDS011;49084;48.204;16.202;2023-04-24T07:53:40;1.20;;;1.10;;
62990;SDS011;49084;48.204;16.202;2023-04-24T07:56:06;1.80;;;1.30;;
62990;SDS011;49084;48.204;16.202;2023-04-24T07:58:32;1.77;;;1.40;;
62990;SDS011;49084;48.204;16.202;2023-04-24T08:00:58;1.27;;;1.17;;
62990;SDS011;49084;48.204;16.202;2023-04-24T08:03:23;1.55;;;1.08;;
62990;SDS011;49084;48.204;16.202;2023-04-24T08:05:49;2.22;;;0.90;;
62990;SDS011;49084;48.204;16.202;2023-04-24T08:08:16;1.90;;;1.17;;
62990;SDS011;49084;48.204;16.202;2023-04-24T08:10:42;1.30;;;1.00;;
62990;SDS011;49084;48.204;16.202;2023-04-24T08:13:08;4.22;;;0.82;;
62990;SDS011;49084;48.204;16.202;2023-04-24T08:15:34;0.85;;;0.77;;
62990;SDS011;49084;48.204;16.202;2023-04-24T08:18:00;2.67;;;1.20;;
62990;SDS011;49084;48.204;16.202;2023-04-24T08:20:25;2.83;;;0.73;;
62990;SDS011;49084;48.204;16.202;2023-04-24T08:22:51;2.05;;;0.65;;
62990;SDS011;49084;48.204;16.202;2023-04-24T08:25:17;2.90;;;0.47;;
62990;SDS011;49084;48.204;16.202;2023-04-24T08:27:44;0.55;;;0.50;;
62990;SDS011;49084;48.204;16.202;2023-04-24T08:30:10;0.65;;;0.40;;
62990;SDS011;49084;48.204;16.202;2023-04-24T08:32:36;0.63;;;0.47;;
62990;SDS011;49084;48.204;16.202;2023-04-24T08:35:02;0.43;;;0.43;;
62990;SDS011;49084;48.204;16.202;2023-04-24T08:37:28;4.78;;;0.40;;
62990;SDS011;49084;48.204;16.202;2023-04-24T08:39:54;1.25;;;0.60;;
62990;SDS011;49084;48.204;16.202;2023-04-24T08:42:20;0.25;;;0.25;;
62990;SDS011;49084;48.204;16.202;2023-04-24T08:44:46;0.30;;;0.25;;
62990;SDS011;49084;48.204;16.202;2023-04-24T08:47:13;0.38;;;0.38;;
62990;SDS011;49084;48.204;16.202;2023-04-24T08:49:40;0.38;;;0.38;;
62990;SDS011;49084;48.204;16.202;2023-04-24T08:52:06;1.38;;;0.20;;
62990;SDS011;49084;48.204;16.202;2023-04-24T08:54:35;1.25;;;0.30;;
62990;SDS011;49084;48.204;16.202;2023-04-24T08:57:02;0.40;;;0.20;;
62990;SDS011;49084;48.204;16.202;2023-04-24T08:59:29;1.65;;;0.20;;
62990;SDS011;49084;48.204;16.202;2023-04-24T09:01:56;3.00;;;0.10;;
62990;SDS011;49084;48.204;16.202;2023-04-24T09:04:23;0.20;;;0.20;;
62990;SDS011;49084;48.204;16.202;2023-04-24T09:06:58;0.32;;;0.20;;
62990;SDS011;49084;48.204;16.202;2023-04-24T09:09:25;1.02;;;0.10;;
62990;SDS011;49084;48.204;16.202;2023-04-24T09:11:51;0.15;;;0.15;;
62990;SDS011;49084;48.204;16.202;2023-04-24T09:16:46;0.65;;;0.20;;
62990;SDS011;49084;48.204;16.202;2023-04-24T09:19:11;0.52;;;0.20;;
62990;SDS011;49084;48.204;16.202;2023-04-24T09:21:37;2.50;;;0.30;;
62990;SDS011;49084;48.204;16.202;2023-04-24T09:24:05;4.18;;;0.30;;
62990;SDS011;49084;48.204;16.202;2023-04-24T09:26:33;1.58;;;0.20;;
62990;SDS011;49084;48.204;16.202;2023-04-24T09:29:00;2.60;;;0.53;;
62990;SDS011;49084;48.204;16.202;2023-04-24T09:31:27;0.20;;;0.20;;
62990;SDS011;49084;48.204;16.202;2023-04-24T09:34:01;0.85;;;0.30;;
62990;SDS011;49084;48.204;16.202;2023-04-24T09:36:34;0.73;;;0.15;;
62990;SDS011;49084;48.204;16.202;2023-04-24T09:39:02;0.20;;;0.15;;
62990;SDS011;49084;48.204;16.202;2023-04-24T09:41:31;0.30;;;0.30;;
62990;SDS011;49084;48.204;16.202;2023-04-24T09:43:58;0.47;;;0.32;;
62990;SDS011;49084;48.204;16.202;2023-04-24T09:46:37;1.27;;;0.17;;
62990;SDS011;49084;48.204;16.202;2023-04-24T09:49:24;3.40;;;0.30;;
62990;SDS011;49084;48.204;16.202;2023-04-24T09:51:50;0.20;;;0.10;;
62990;SDS011;49084;48.204;16.202;2023-04-24T09:54:17;1.15;;;0.10;;
62990;SDS011;49084;48.204;16.202;2023-04-24T09:56:45;0.45;;;0.28;;
62990;SDS011;49084;48.204;16.202;2023-04-24T09:59:13;0.95;;;0.17;;
62990;SDS011;49084;48.204;16.202;2023-04-24T10:01:40;3.00;;;0.22;;
62990;SDS011;49084;48.204;16.202;2023-04-24T10:04:17;3.33;;;0.30;;
62990;SDS011;49084;48.204;16.202;2023-04-24T10:06:44;1.48;;;0.30;;
62990;SDS011;49084;48.204;16.202;2023-04-24T10:09:11;0.22;;;0.10;;
62990;SDS011;49084;48.204;16.202;2023-04-24T10:11:41;0.10;;;0.10;;
62990;SDS011;49084;48.204;16.202;2023-04-24T10:14:10;0.40;;;0.30;;
62990;SDS011;49084;48.204;16.202;2023-04-24T10:16:39;0.20;;;0.20;;
62990;SDS011;49084;48.204;16.202;2023-04-24T10:19:05;1.80;;;0.30;;
62990;SDS011;49084;48.204;16.202;2023-04-24T10:21:32;0.70;;;0.35;;
62990;SDS011;49084;48.204;16.202;2023-04-24T10:23:59;0.43;;;0.40;;
62990;SDS011;49084;48.204;16.202;2023-04-24T10:26:28;2.15;;;0.20;;
62990;SDS011;49084;48.204;16.202;2023-04-24T10:28:54;1.15;;;0.30;;
62990;SDS011;49084;48.204;16.202;2023-04-24T10:31:23;0.93;;;0.35;;
62990;SDS011;49084;48.204;16.202;2023-04-24T10:33:49;14.68;;;2.05;;
62990;SDS011;49084;48.204;16.202;2023-04-24T10:36:16;0.50;;;0.32;;
62990;SDS011;49084;48.204;16.202;2023-04-24T10:38:43;3.58;;;0.45;;
62990;SDS011;49084;48.204;16.202;2023-04-24T10:41:11;0.20;;;0.20;;
62990;SDS011;49084;48.204;16.202;2023-04-24T10:43:44;0.57;;;0.45;;
62990;SDS011;49084;48.204;16.202;2023-04-24T10:46:10;2.08;;;0.30;;
62990;SDS011;49084;48.204;16.202;2023-04-24T10:48:44;1.35;;;0.30;;
62990;SDS011;49084;48.204;16.202;2023-04-24T10:51:19;1.65;;;0.50;;
62990;SDS011;49084;48.204;16.202;2023-04-24T10:53:49;3.22;;;0.40;;
62990;SDS011;49084;48.204;16.202;2023-04-24T10:56:15;1.52;;;0.38;;
62990;SDS011;49084;48.204;16.202;2023-04-24T10:58:42;0.60;;;0.40;;
62990;SDS011;49084;48.204;16.202;2023-04-24T11:01:22;1.60;;;0.50;;
62990;SDS011;49084;48.204;16.202;2023-04-24T11:03:57;0.50;;;0.30;;
62990;SDS011;49084;48.204;16.202;2023-04-24T11:06:37;1.95;;;0.50;;
62990;SDS011;49084;48.204;16.202;2023-04-24T11:11:29;0.82;;;0.38;;
62990;SDS011;49084;48.204;16.202;2023-04-24T11:19:01;1.50;;;0.40;;
62990;SDS011;49084;48.204;16.202;2023-04-24T11:26:53;0.88;;;0.30;;
62990;SDS011;49084;48.204;16.202;2023-04-24T11:29:20;2.33;;;1.27;;
62990;SDS011;49084;48.204;16.202;2023-04-24T11:31:46;1.00;;;0.57;;
62990;SDS011;49084;48.204;16.202;2023-04-24T11:34:16;3.53;;;0.90;;
62990;SDS011;49084;48.204;16.202;2023-04-24T11:36:43;2.05;;;1.10;;
62990;SDS011;49084;48.204;16.202;2023-04-24T11:39:10;2.28;;;1.05;;
62990;SDS011;49084;48.204;16.202;2023-04-24T11:41:36;1.00;;;0.90;;
62990;SDS011;49084;48.204;16.202;2023-04-24T11:44:02;1.02;;;0.88;;
62990;SDS011;49084;48.204;16.202;2023-04-24T11:46:31;2.53;;;0.80;;
62990;SDS011;49084;48.204;16.202;2023-04-24T11:48:57;4.72;;;1.27;;
62990;SDS011;49084;48.204;16.202;2023-04-24T11:51:23;2.95;;;1.23;;
62990;SDS011;49084;48.204;16.202;2023-04-24T11:53:53;4.03;;;1.70;;
62990;SDS011;49084;48.204;16.202;2023-04-24T11:56:23;3.72;;;1.70;;
62990;SDS011;49084;48.204;16.202;2023-04-24T11:58:51;2.80;;;1.10;;
62990;SDS011;49084;48.204;16.202;2023-04-24T12:01:18;2.47;;;0.63;;
62990;SDS011;49084;48.204;16.202;2023-04-24T12:03:48;3.05;;;0.73;;
62990;SDS011;49084;48.204;16.202;2023-04-24T12:06:15;1.35;;;0.73;;
62990;SDS011;49084;48.204;16.202;2023-04-24T12:08:42;0.50;;;0.50;;
62990;SDS011;49084;48.204;16.202;2023-04-24T12:11:11;1.30;;;0.60;;
62990;SDS011;49084;48.204;16.202;2023-04-24T12:13:41;0.60;;;0.40;;
62990;SDS011;49084;48.204;16.202;2023-04-24T12:16:06;0.75;;;0.38;;
62990;SDS011;49084;48.204;16.202;2023-04-24T12:18:32;3.53;;;0.38;;
62990;SDS011;49084;48.204;16.202;2023-04-24T12:23:47;1.05;;;0.50;;
62990;SDS011;49084;48.204;16.202;2023-04-24T12:26:16;4.07;;;0.52;;
62990;SDS011;49084;48.204;16.202;2023-04-24T12:28:45;1.08;;;0.75;;
62990;SDS011;49084;48.204;16.202;2023-04-24T12:31:13;3.10;;;0.55;;
62990;SDS011;49084;48.204;16.202;2023-04-24T12:33:39;0.30;;;0.30;;
62990;SDS011;49084;48.204;16.202;2023-04-24T12:36:04;1.65;;;0.50;;
62990;SDS011;49084;48.204;16.202;2023-04-24T12:38:31;3.95;;;0.40;;
62990;SDS011;49084;48.204;16.202;2023-04-24T12:41:09;0.30;;;0.20;;
62990;SDS011;49084;48.204;16.202;2023-04-24T12:43:36;0.30;;;0.20;;
62990;SDS011;49084;48.204;16.202;2023-04-24T12:46:02;0.25;;;0.20;;
62990;SDS011;49084;48.204;16.202;2023-04-24T12:48:28;0.47;;;0.20;;
62990;SDS011;49084;48.204;16.202;2023-04-24T12:50:56;1.88;;;0.40;;
62990;SDS011;49084;48.204;16.202;2023-04-24T12:53:26;1.30;;;0.10;;
62990;SDS011;49084;48.204;16.202;2023-04-24T12:55:53;0.93;;;0.30;;
62990;SDS011;49084;48.204;16.202;2023-04-24T12:58:22;1.85;;;0.20;;
62990;SDS011;49084;48.204;16.202;2023-04-24T13:00:47;1.17;;;0.30;;
62990;SDS011;49084;48.204;16.202;2023-04-24T13:03:13;0.43;;;0.30;;
62990;SDS011;49084;48.204;16.202;2023-04-24T13:05:39;1.17;;;0.38;;
62990;SDS011;49084;48.204;16.202;2023-04-24T13:08:05;0.90;;;0.20;;
62990;SDS011;49084;48.204;16.202;2023-04-24T13:10:31;1.55;;;0.38;;
62990;SDS011;49084;48.204;16.202;2023-04-24T13:12:57;2.05;;;0.55;;
62990;SDS011;49084;48.204;16.202;2023-04-24T13:15:22;1.25;;;0.35;;
62990;SDS011;49084;48.204;16.202;2023-04-24T13:17:49;2.60;;;0.30;;
62990;SDS011;49084;48.204;16.202;2023-04-24T13:20:15;0.90;;;0.20;;
62990;SDS011;49084;48.204;16.202;2023-04-24T13:22:41;0.55;;;0.20;;
62990;SDS011;49084;48.204;16.202;2023-04-24T13:25:06;4.95;;;0.28;;
62990;SDS011;49084;48.204;16.202;2023-04-24T13:27:32;0.50;;;0.10;;
62990;SDS011;49084;48.204;16.202;2023-04-24T13:29:58;0.38;;;0.10;;
62990;SDS011;49084;48.204;16.202;2023-04-24T13:32:24;0.10;;;0.10;;
62990;SDS011;49084;48.204;16.202;2023-04-24T13:34:50;0.50;;;0.22;;
62990;SDS011;49084;48.204;16.202;2023-04-24T13:37:15;0.30;;;0.10;;
62990;SDS011;49084;48.204;16.202;2023-04-24T13:39:41;0.43;;;0.20;;
62990;SDS011;49084;48.204;16.202;2023-04-24T13:42:07;0.57;;;0.30;;
62990;SDS011;49084;48.204;16.202;2023-04-24T13:44:33;3.58;;;0.20;;
62990;SDS011;49084;48.204;16.202;2023-04-24T13:46:59;0.30;;;0.20;;
62990;SDS011;49084;48.204;16.202;2023-04-24T13:49:25;2.58;;;0.30;;
62990;SDS011;49084;48.204;16.202;2023-04-24T13:51:52;1.50;;;0.32;;
62990;SDS011;49084;48.204;16.202;2023-04-24T13:54:18;1.35;;;0.22;;
62990;SDS011;49084;48.204;16.202;2023-04-24T13:56:44;0.63;;;0.25;;
62990;SDS011;49084;48.204;16.202;2023-04-24T13:59:11;1.23;;;0.35;;
62990;SDS011;49084;48.204;16.202;2023-04-24T14:01:38;0.77;;;0.32;;
62990;SDS011;49084;48.204;16.202;2023-04-24T14:04:03;3.88;;;1.50;;
62990;SDS011;49084;48.204;16.202;2023-04-24T14:06:29;2.22;;;0.38;;
62990;SDS011;49084;48.204;16.202;2023-04-24T14:08:56;2.38;;;0.60;;
62990;SDS011;49084;48.204;16.202;2023-04-24T14:11:22;6.93;;;1.33;;
62990;SDS011;49084;48.204;16.202;2023-04-24T14:13:47;9.88;;;2.42;;
62990;SDS011;49084;48.204;16.202;2023-04-24T14:16:13;8.23;;;1.35;;
62990;SDS011;49084;48.204;16.202;2023-04-24T14:18:39;2.45;;;0.70;;
62990;SDS011;49084;48.204;16.202;2023-04-24T14:21:05;3.90;;;1.05;;
62990;SDS011;49084;48.204;16.202;2023-04-24T14:23:31;2.88;;;1.52;;
62990;SDS011;49084;48.204;16.202;2023-04-24T14:25:57;5.78;;;1.75;;
62990;SDS011;49084;48.204;16.202;2023-04-24T14:28:24;7.40;;;2.25;;
62990;SDS011;49084;48.204;16.202;2023-04-24T14:30:50;3.55;;;1.45;;
62990;SDS011;49084;48.204;16.202;2023-04-24T14:33:16;3.75;;;1.35;;
62990;SDS011;49084;48.204;16.202;2023-04-24T14:35:42;4.20;;;1.38;;
62990;SDS011;49084;48.204;16.202;2023-04-24T14:38:08;1.63;;;1.08;;
62990;SDS011;49084;48.204;16.202;2023-04-24T14:40:35;2.63;;;1.15;;
62990;SDS011;49084;48.204;16.202;2023-04-24T14:43:00;4.72;;;1.08;;
62990;SDS011;49084;48.204;16.202;2023-04-24T14:45:26;1.42;;;1.08;;
62990;SDS011;49084;48.204;16.202;2023-04-24T14:47:52;3.70;;;1.08;;